createdAt,value
2023-05-12T00:01:47.777Z,36.61
2023-05-12T00:05:17.915Z,36.74
2023-05-12T00:08:46.030Z,36.78
2023-05-12T00:12:16.762Z,36.92
2023-05-12T00:15:43.876Z,36.87
2023-05-12T00:19:12.396Z,37.06
2023-05-12T00:22:39.592Z,37.24
2023-05-12T00:26:06.600Z,37.15
2023-05-12T00:29:33.929Z,37.33
2023-05-12T00:33:01.883Z,37.48
2023-05-12T00:36:30.788Z,37.35
2023-05-12T00:39:58.003Z,37.45
2023-05-12T00:43:25.352Z,37.67
2023-05-12T00:46:52.732Z,37.77
2023-05-12T00:50:19.754Z,37.78
2023-05-12T00:53:51.101Z,37.91
2023-05-12T00:57:20.539Z,37.96
2023-05-12T01:00:48.073Z,38.18
2023-05-12T01:04:15.745Z,38.18
2023-05-12T01:07:43.922Z,38.39
2023-05-12T01:11:11.297Z,38.53
2023-05-12T01:14:39.070Z,38.69
2023-05-12T01:18:08.876Z,38.81
2023-05-12T01:21:37.260Z,38.85
2023-05-12T01:25:07.854Z,38.95
2023-05-12T01:28:36.220Z,38.84
2023-05-12T01:32:04.445Z,39.01
2023-05-12T01:35:32.574Z,39.13
2023-05-12T01:39:01.861Z,39.13
2023-05-12T01:42:29.573Z,39.16
2023-05-12T01:45:59.683Z,39.23
2023-05-12T01:49:27.122Z,39.18
2023-05-12T01:52:55.307Z,39.39
2023-05-12T01:56:23.269Z,39.30
2023-05-12T01:59:50.182Z,39.39
2023-05-12T02:03:18.889Z,39.48
2023-05-12T02:06:46.722Z,39.50
2023-05-12T02:10:14.311Z,39.51
2023-05-12T02:13:42.035Z,39.52
2023-05-12T02:17:09.151Z,39.65
2023-05-12T02:20:36.474Z,39.73
2023-05-12T02:24:04.076Z,39.65
2023-05-12T02:27:32.672Z,39.70
2023-05-12T02:30:59.876Z,39.82
2023-05-12T02:34:28.260Z,39.93
2023-05-12T02:37:57.166Z,39.90
2023-05-12T02:41:24.221Z,40.00
2023-05-12T02:44:51.559Z,40.09
2023-05-12T02:48:18.692Z,40.09
2023-05-12T02:51:48.817Z,40.14
2023-05-12T02:55:15.393Z,40.17
2023-05-12T02:58:42.261Z,40.29
2023-05-12T03:02:09.351Z,40.30
2023-05-12T03:05:36.390Z,40.47
2023-05-12T03:09:04.470Z,40.43
2023-05-12T03:12:31.818Z,40.50
2023-05-12T03:16:02.228Z,40.54
2023-05-12T03:19:30.211Z,40.66
2023-05-12T03:22:57.496Z,40.77
2023-05-12T03:26:25.140Z,40.74
2023-05-12T03:29:52.311Z,40.76
2023-05-12T03:33:19.232Z,40.82
2023-05-12T03:36:47.705Z,40.99
2023-05-12T03:40:19.263Z,40.99
2023-05-12T03:43:47.530Z,41.10
2023-05-12T03:47:15.273Z,41.01
2023-05-12T03:50:43.174Z,41.25
2023-05-12T03:54:11.440Z,41.30
2023-05-12T03:57:38.689Z,41.34
2023-05-12T04:01:05.969Z,41.34
2023-05-12T04:04:32.888Z,41.43
2023-05-12T04:07:59.485Z,41.45
2023-05-12T04:11:26.474Z,41.56
2023-05-12T04:14:53.532Z,41.57
2023-05-12T04:18:20.490Z,41.62
2023-05-12T04:21:47.723Z,41.64
2023-05-12T04:25:14.518Z,41.73
2023-05-12T04:28:41.478Z,41.87
2023-05-12T04:32:10.440Z,41.70
2023-05-12T04:35:37.830Z,41.87
2023-05-12T04:39:05.791Z,41.89
2023-05-12T04:42:33.195Z,41.89
2023-05-12T04:46:03.516Z,42.07
2023-05-12T04:49:31.393Z,42.02
2023-05-12T04:52:58.692Z,41.94
2023-05-12T04:56:25.794Z,42.09
2023-05-12T04:59:53.818Z,42.20
2023-05-12T05:03:21.358Z,42.06
2023-05-12T05:06:50.038Z,42.14
2023-05-12T05:10:18.821Z,42.04
2023-05-12T05:13:45.945Z,42.14
2023-05-12T05:17:13.667Z,42.31
2023-05-12T05:20:45.038Z,42.27
2023-05-12T05:24:15.183Z,42.40
2023-05-12T05:27:42.386Z,42.34
2023-05-12T05:31:09.389Z,42.57
2023-05-12T05:34:36.608Z,42.52
2023-05-12T05:38:04.041Z,42.36
2023-05-12T05:41:32.493Z,42.48
2023-05-12T05:44:59.362Z,42.50
2023-05-12T05:48:26.174Z,42.51
2023-05-12T05:51:54.017Z,42.60
2023-05-12T05:55:21.669Z,42.54
2023-05-12T05:58:50.431Z,42.70
2023-05-12T06:02:17.736Z,42.46
2023-05-12T06:05:44.960Z,42.56
2023-05-12T06:09:13.141Z,42.70
2023-05-12T06:12:41.130Z,42.56
2023-05-12T06:16:08.713Z,42.72
2023-05-12T06:19:35.408Z,42.62
2023-05-12T06:23:03.119Z,42.74
2023-05-12T06:26:31.645Z,42.78
2023-05-12T06:29:58.346Z,42.85
2023-05-12T06:33:25.537Z,42.84
2023-05-12T06:36:54.907Z,42.79
2023-05-12T06:40:25.448Z,42.69
2023-05-12T06:43:53.669Z,42.77
2023-05-12T06:47:27.726Z,42.57
2023-05-12T06:50:59.416Z,42.60
2023-05-12T06:54:28.879Z,42.45
2023-05-12T06:57:58.709Z,42.58
2023-05-12T07:01:26.036Z,42.54
2023-05-12T07:04:53.719Z,42.51
2023-05-12T07:08:20.883Z,42.62
2023-05-12T07:11:49.067Z,42.66
2023-05-12T07:15:16.793Z,42.37
2023-05-12T07:18:44.539Z,42.34
2023-05-12T07:22:11.700Z,42.35
2023-05-12T07:25:39.600Z,42.24
2023-05-12T07:29:07.607Z,42.12
2023-05-12T07:32:34.685Z,42.16
2023-05-12T07:36:01.922Z,42.02
2023-05-12T07:39:29.826Z,41.91
2023-05-12T07:42:57.378Z,42.07
2023-05-12T07:46:24.188Z,42.08
2023-05-12T07:49:51.709Z,41.93
2023-05-12T07:53:19.414Z,41.67
2023-05-12T07:56:46.755Z,41.78
2023-05-12T08:00:16.774Z,41.85
2023-05-12T08:03:46.963Z,41.68
2023-05-12T08:07:19.389Z,41.54
2023-05-12T08:10:46.973Z,41.58
2023-05-12T08:14:14.961Z,41.26
2023-05-12T08:17:43.452Z,40.92
2023-05-12T08:21:11.561Z,40.80
2023-05-12T08:24:38.625Z,40.60
2023-05-12T08:28:05.406Z,40.51
2023-05-12T08:31:32.310Z,40.33
2023-05-12T08:34:59.553Z,40.18
2023-05-12T08:38:26.895Z,39.99
2023-05-12T08:42:02.632Z,39.98
2023-05-12T08:45:30.093Z,39.67
2023-05-12T08:48:59.100Z,39.49
2023-05-12T08:52:26.225Z,39.27
2023-05-12T08:57:08.854Z,39.00
2023-05-12T08:59:45.242Z,38.63
2023-05-12T09:03:14.728Z,38.26
2023-05-12T09:06:44.010Z,38.09
2023-05-12T09:10:29.877Z,37.94
2023-05-12T09:14:05.001Z,37.69
2023-05-12T09:17:31.966Z,37.42
2023-05-12T09:20:58.644Z,37.16
2023-05-12T09:24:37.796Z,36.99
2023-05-12T09:28:05.347Z,36.82
2023-05-12T09:31:32.051Z,36.60
2023-05-12T09:34:58.987Z,36.41
2023-05-12T09:38:26.515Z,36.11
2023-05-12T09:41:55.103Z,36.18
2023-05-12T09:45:23.061Z,36.05
2023-05-12T09:48:53.581Z,35.89
2023-05-12T09:52:24.021Z,35.88
2023-05-12T09:55:52.525Z,35.58
2023-05-12T09:59:21.512Z,35.42
2023-05-12T10:02:52.619Z,35.12
2023-05-12T10:06:25.585Z,35.10
2023-05-12T10:09:53.236Z,34.78
2023-05-12T10:13:21.534Z,34.59
2023-05-12T10:16:49.283Z,34.55
2023-05-12T10:20:17.629Z,34.24
2023-05-12T10:23:46.654Z,34.13
2023-05-12T10:27:17.556Z,34.15
2023-05-12T10:30:46.791Z,34.23
2023-05-12T10:34:20.033Z,34.14
2023-05-12T10:37:48.444Z,33.92
2023-05-12T10:41:17.130Z,33.63
2023-05-12T10:44:53.760Z,33.25
2023-05-12T10:48:20.785Z,33.22
2023-05-12T10:51:52.057Z,32.89
2023-05-12T10:55:19.987Z,32.72
2023-05-12T10:59:10.410Z,32.67
2023-05-12T11:02:40.111Z,32.44
2023-05-12T11:06:10.482Z,32.40
2023-05-12T11:09:50.380Z,32.51
2023-05-12T11:13:23.400Z,32.36
2023-05-12T11:16:50.611Z,32.13
2023-05-12T11:20:30.210Z,31.85
2023-05-12T11:23:59.043Z,31.94
2023-05-12T11:27:26.624Z,32.03
2023-05-12T11:30:55.635Z,31.86
2023-05-12T11:34:27.370Z,31.59
2023-05-12T11:37:54.280Z,31.61
2023-05-12T11:41:26.707Z,31.46
2023-05-12T11:44:55.693Z,31.23
2023-05-12T11:48:23.071Z,31.23
2023-05-12T11:51:52.522Z,31.00
2023-05-12T11:55:24.594Z,30.97
2023-05-12T11:58:58.030Z,30.92
2023-05-12T12:02:25.199Z,30.97
2023-05-12T12:06:02.976Z,30.63
2023-05-12T12:09:36.791Z,30.53
2023-05-12T12:13:06.152Z,30.51
2023-05-12T12:16:34.977Z,30.54
2023-05-12T12:20:02.250Z,30.12
2023-05-12T12:23:33.335Z,30.49
2023-05-12T12:27:09.045Z,30.23
2023-05-12T12:30:35.898Z,30.05
2023-05-12T12:34:02.879Z,29.93
2023-05-12T12:37:30.503Z,29.96
2023-05-12T12:40:57.447Z,29.91
2023-05-12T12:44:24.420Z,29.70
2023-05-12T12:47:55.020Z,29.46
2023-05-12T12:51:23.591Z,29.41
2023-05-12T12:54:53.461Z,29.35
2023-05-12T12:58:20.707Z,29.23
2023-05-12T13:01:50.799Z,28.73
2023-05-12T13:05:18.101Z,28.76
2023-05-12T13:08:45.929Z,28.64
2023-05-12T13:12:13.705Z,28.56
2023-05-12T13:15:41.989Z,28.33
2023-05-12T13:19:09.250Z,28.12
2023-05-12T13:22:36.185Z,27.86
2023-05-12T13:26:03.192Z,27.73
2023-05-12T13:29:30.537Z,27.73
2023-05-12T13:32:57.715Z,27.42
2023-05-12T13:36:24.273Z,27.08
2023-05-12T13:39:51.829Z,27.27
2023-05-12T13:43:19.470Z,26.56
2023-05-12T13:46:46.409Z,26.62
2023-05-12T13:50:13.803Z,26.46
2023-05-12T13:53:41.014Z,26.16
2023-05-12T13:57:14.470Z,26.04
2023-05-12T14:00:42.030Z,25.83
2023-05-12T14:04:09.376Z,25.96
2023-05-12T14:07:35.989Z,25.46
2023-05-12T14:11:02.801Z,25.50
2023-05-12T14:14:29.476Z,25.26
2023-05-12T14:17:56.169Z,25.45
2023-05-12T14:21:23.805Z,25.25
2023-05-12T14:24:51.172Z,25.04
2023-05-12T14:28:18.069Z,24.84
2023-05-12T14:31:45.249Z,24.84
2023-05-12T14:35:13.375Z,24.68
2023-05-12T14:38:40.216Z,24.76
2023-05-12T14:42:07.424Z,24.59
2023-05-12T14:45:34.518Z,24.80
2023-05-12T14:49:01.600Z,24.45
2023-05-12T14:52:28.074Z,24.06
2023-05-12T14:55:55.104Z,23.75
2023-05-12T14:59:22.433Z,23.82
2023-05-12T15:02:49.689Z,23.50
2023-05-12T15:06:17.023Z,23.58
2023-05-12T15:09:44.826Z,23.48
2023-05-12T15:13:12.916Z,23.39
2023-05-12T15:16:40.325Z,23.17
2023-05-12T15:20:10.134Z,22.88
2023-05-12T15:23:37.437Z,23.12
2023-05-12T15:27:04.295Z,22.57
2023-05-12T15:30:36.146Z,22.66
2023-05-12T15:34:06.449Z,22.79
2023-05-12T15:37:33.317Z,22.59
2023-05-12T15:41:02.510Z,22.49
2023-05-12T15:44:30.660Z,22.44
2023-05-12T15:48:01.439Z,22.43
2023-05-12T15:51:30.101Z,22.19
2023-05-12T15:54:57.259Z,22.43
2023-05-12T15:58:28.018Z,22.38
2023-05-12T16:01:55.782Z,22.19
2023-05-12T16:05:24.270Z,22.23
2023-05-12T16:08:52.866Z,22.25
2023-05-12T16:12:20.172Z,22.33
2023-05-12T16:15:47.322Z,22.50
2023-05-12T16:19:14.269Z,22.64
2023-05-12T16:22:42.768Z,22.55
2023-05-12T16:26:09.974Z,22.76
2023-05-12T16:29:37.244Z,22.94
2023-05-12T16:33:04.065Z,23.09
2023-05-12T16:36:32.419Z,23.07
2023-05-12T16:39:59.592Z,23.12
2023-05-12T16:43:26.546Z,23.23
2023-05-12T16:46:53.738Z,23.22
2023-05-12T16:50:21.161Z,23.36
2023-05-12T16:53:48.220Z,23.47
2023-05-12T16:57:15.482Z,23.51
2023-05-12T17:00:43.663Z,23.60
2023-05-12T17:04:12.772Z,23.69
2023-05-12T17:07:41.258Z,23.82
2023-05-12T17:11:10.052Z,23.76
2023-05-12T17:14:37.452Z,23.83
2023-05-12T17:18:06.493Z,23.95
2023-05-12T17:21:34.164Z,24.06
2023-05-12T17:25:03.333Z,24.14
2023-05-12T17:28:32.164Z,24.16
2023-05-12T17:32:02.455Z,24.26
2023-05-12T17:35:30.420Z,24.35
2023-05-12T17:38:58.517Z,24.41
2023-05-12T17:42:29.029Z,24.52
2023-05-12T17:45:55.723Z,24.70
2023-05-12T17:49:22.687Z,24.72
2023-05-12T17:52:50.398Z,24.80
2023-05-12T17:56:17.900Z,24.87
2023-05-12T17:59:45.339Z,25.06
2023-05-12T18:03:16.011Z,25.06
2023-05-12T18:06:42.695Z,25.18
2023-05-12T18:10:12.614Z,25.41
2023-05-12T18:13:39.774Z,25.34
2023-05-12T18:17:06.944Z,25.51
2023-05-12T18:20:34.250Z,25.55
2023-05-12T18:24:01.651Z,25.60
2023-05-12T18:27:29.200Z,25.76
2023-05-12T18:30:58.061Z,25.91
2023-05-12T18:34:28.617Z,25.99
2023-05-12T18:37:56.168Z,26.16
2023-05-12T18:41:22.981Z,26.31
2023-05-12T18:44:50.361Z,26.36
2023-05-12T18:48:17.522Z,26.53
2023-05-12T18:51:46.015Z,26.57
2023-05-12T18:55:21.961Z,26.82
2023-05-12T18:58:51.449Z,26.89
2023-05-12T19:02:19.486Z,27.09
2023-05-12T19:05:49.675Z,27.17
2023-05-12T19:09:24.657Z,27.23
2023-05-12T19:12:59.366Z,27.32
2023-05-12T19:16:31.946Z,27.41
2023-05-12T19:20:03.253Z,27.58
2023-05-12T19:23:33.470Z,27.75
2023-05-12T19:27:04.823Z,27.88
2023-05-12T19:30:36.078Z,28.04
2023-05-12T19:34:10.686Z,28.13
2023-05-12T19:37:46.665Z,28.22
2023-05-12T19:41:19.319Z,28.46
2023-05-12T19:45:01.297Z,28.58
2023-05-12T19:48:36.399Z,28.78
2023-05-12T19:52:14.003Z,28.97
2023-05-12T19:55:45.497Z,28.99
2023-05-12T19:59:15.339Z,29.22
2023-05-12T20:02:46.379Z,29.24
2023-05-12T20:06:22.487Z,29.47
2023-05-12T20:09:56.836Z,29.57
2023-05-12T20:13:29.122Z,29.79
2023-05-12T20:17:11.332Z,29.97
2023-05-12T20:20:42.107Z,30.03
2023-05-12T20:24:16.394Z,30.18
2023-05-12T20:27:57.171Z,30.37
2023-05-12T20:31:26.630Z,30.60
2023-05-12T20:34:55.988Z,30.75
2023-05-12T20:38:24.501Z,30.84
2023-05-12T20:42:04.466Z,31.09
2023-05-12T20:45:34.203Z,31.22
2023-05-12T20:49:02.062Z,31.36
2023-05-12T20:52:33.363Z,31.55
2023-05-12T20:55:59.989Z,31.56
2023-05-12T20:59:26.852Z,31.70
2023-05-12T21:02:54.775Z,31.95
2023-05-12T21:06:22.266Z,32.13
2023-05-12T21:09:49.802Z,32.43
2023-05-12T21:13:20.066Z,32.63
2023-05-12T21:16:49.280Z,32.62
2023-05-12T21:20:16.731Z,32.73
2023-05-12T21:23:45.476Z,32.82
2023-05-12T21:27:13.159Z,32.88
2023-05-12T21:30:43.897Z,33.26
2023-05-12T21:34:13.049Z,33.40
2023-05-12T21:37:54.173Z,33.57
2023-05-12T21:41:21.755Z,33.46
2023-05-12T21:44:50.856Z,33.69
2023-05-12T21:48:18.168Z,33.89
2023-05-12T21:51:45.096Z,33.74
2023-05-12T21:55:15.308Z,34.26
2023-05-12T21:58:43.136Z,34.26
2023-05-12T22:02:11.700Z,34.45
2023-05-12T22:05:39.259Z,34.53
2023-05-12T22:09:06.131Z,34.92
2023-05-12T22:12:33.750Z,34.87
2023-05-12T22:16:01.562Z,35.10
2023-05-12T22:19:29.232Z,35.31
2023-05-12T22:22:56.361Z,35.28
2023-05-12T22:26:23.604Z,35.51
2023-05-12T22:29:50.611Z,35.62
2023-05-12T22:33:18.637Z,35.77
2023-05-12T22:36:45.385Z,35.96
2023-05-12T22:40:14.177Z,36.03
2023-05-12T22:43:41.706Z,36.11
2023-05-12T22:47:09.822Z,36.30
2023-05-12T22:50:36.631Z,36.41
2023-05-12T22:54:07.737Z,36.67
2023-05-12T22:57:34.935Z,36.63
2023-05-12T23:01:06.220Z,36.80
2023-05-12T23:04:40.530Z,37.08
2023-05-12T23:08:08.346Z,37.19
2023-05-12T23:11:35.441Z,37.37
2023-05-12T23:15:03.272Z,37.34
2023-05-12T23:18:34.424Z,37.53
2023-05-12T23:22:01.747Z,37.71
2023-05-12T23:25:28.694Z,37.81
2023-05-12T23:28:56.049Z,37.94
2023-05-12T23:32:24.077Z,38.04
2023-05-12T23:35:52.387Z,38.14
2023-05-12T23:39:19.509Z,38.28
2023-05-12T23:42:47.561Z,38.42
2023-05-12T23:46:14.800Z,38.61
2023-05-12T23:49:43.883Z,38.72
2023-05-12T23:53:11.791Z,38.76
2023-05-12T23:56:41.444Z,38.98
